Time;durP1;ratioP1;P1;durP2;ratioP2;P2;SDS_P1;SDS_P2;PMS_P1;PMS_P2;Temp;Humidity;BMP_temperature;BMP_pressure;BME280_temperature;BME280_humidity;BME280_pressure;Samples;Min_cycle;Max_cycle;Signal;HPM_P1;HPM_P2
2023/03/31 00:00:32;;;;;;;6.18;4.18;;;;;;;1.78;76.55;147767.38;5021653;28;20136;-63
2023/03/31 00:02:58;;;;;;;4.40;4.00;;;;;;;1.79;76.16;147771.19;5022316;28;20425;-65
2023/03/31 00:05:25;;;;;;;5.97;4.05;;;;;;;1.85;75.76;147786.50;5040317;28;20079;-65
2023/03/31 00:07:59;;;;;;;4.57;4.13;;;;;;;1.93;76.30;147804.34;5027233;28;20041;-64
2023/03/31 00:10:33;;;;;;;4.50;3.95;;;;;;;2.02;75.93;147827.22;5022087;28;20065;-64
2023/03/31 00:13:00;;;;;;;4.40;4.00;;;;;;;1.87;75.72;147791.59;5022448;28;20049;-63
2023/03/31 00:15:26;;;;;;;5.93;3.67;;;;;;;1.82;75.74;147778.84;5021979;28;20036;-63
2023/03/31 00:17:52;;;;;;;5.63;3.90;;;;;;;1.82;75.75;147777.56;5024186;28;20076;-64
2023/03/31 00:20:18;;;;;;;4.18;3.70;;;;;;;1.92;76.35;147803.03;5025346;28;20057;-63
2023/03/31 00:22:45;;;;;;;4.65;4.13;;;;;;;2.04;75.66;147832.34;5025710;28;20069;-64
2023/03/31 00:25:15;;;;;;;4.22;3.80;;;;;;;2.00;75.47;147822.16;5008025;28;20093;-65
2023/03/31 00:27:43;;;;;;;5.13;4.03;;;;;;;1.95;75.69;147809.41;5025352;28;20033;-66
2023/03/31 00:30:10;;;;;;;4.10;3.70;;;;;;;1.89;75.97;147796.66;5025318;28;20034;-65
2023/03/31 00:32:36;;;;;;;5.68;4.00;;;;;;;1.88;76.31;147794.16;5023632;28;20026;-66
2023/03/31 00:35:01;;;;;;;5.28;3.55;;;;;;;2.00;76.37;147822.16;5007625;28;20026;-67
2023/03/31 00:37:28;;;;;;;3.55;3.25;;;;;;;1.86;75.60;147789.03;5025236;28;20025;-64
2023/03/31 00:39:54;;;;;;;3.80;3.40;;;;;;;1.86;75.91;147789.03;5024844;28;20056;-63
2023/03/31 00:42:20;;;;;;;3.88;3.58;;;;;;;1.82;76.26;147778.84;5025343;28;20022;-66
2023/03/31 00:45:13;;;;;;;5.10;3.80;;;;;;;1.76;76.42;147763.56;5025321;28;20056;-66
2023/03/31 00:47:41;;;;;;;3.00;2.80;;;;;;;1.76;76.55;147762.31;5021125;28;20076;-65
2023/03/31 00:50:20;;;;;;;5.47;3.47;;;;;;;1.74;76.32;147758.50;5024489;28;20037;-64
2023/03/31 00:52:50;;;;;;;4.95;3.20;;;;;;;1.54;75.88;147708.84;5007234;28;20068;-63
2023/03/31 00:55:22;;;;;;;4.28;3.60;;;;;;;1.54;76.61;147710.09;5024527;28;20025;-63
2023/03/31 00:57:47;;;;;;;4.63;3.42;;;;;;;1.77;77.11;147766.13;5024092;28;20467;-64
2023/03/31 01:00:15;;;;;;;4.53;3.53;;;;;;;1.75;76.34;147759.75;5024629;28;20029;-63
2023/03/31 01:02:51;;;;;;;4.15;3.47;;;;;;;1.67;76.71;147740.69;5024858;28;20025;-64
2023/03/31 01:05:23;;;;;;;4.78;3.60;;;;;;;1.52;77.17;147704.97;5006817;28;20184;-63
2023/03/31 01:07:50;;;;;;;3.70;3.35;;;;;;;1.54;77.25;147710.09;5024475;28;20076;-64
2023/03/31 01:10:16;;;;;;;3.75;3.45;;;;;;;1.55;78.33;147712.66;5006303;28;20360;-63
2023/03/31 01:12:47;;;;;;;4.20;3.55;;;;;;;1.51;77.42;147701.16;5007014;28;20029;-64
2023/03/31 01:15:13;;;;;;;4.10;3.20;;;;;;;1.49;77.68;147697.34;5024451;28;20057;-64
2023/03/31 01:17:43;;;;;;;4.05;3.22;;;;;;;1.45;77.82;147687.16;5004005;28;20046;-64
2023/03/31 01:20:12;;;;;;;3.70;3.00;;;;;;;1.41;78.33;147675.72;5020043;28;20040;-63
2023/03/31 01:22:38;;;;;;;3.83;3.53;;;;;;;1.57;77.98;147715.19;5023994;28;20102;-63
2023/03/31 01:25:37;;;;;;;4.82;3.58;;;;;;;1.61;77.88;147726.66;5024228;28;20026;-65
2023/03/31 01:28:05;;;;;;;3.95;3.45;;;;;;;1.66;77.92;147738.13;5023014;28;20200;-64
2023/03/31 01:30:53;;;;;;;6.18;3.90;;;;;;;1.61;77.73;147725.38;5023749;28;20045;-63
2023/03/31 01:33:31;;;;;;;4.40;3.40;;;;;;;1.61;78.32;147726.66;5004940;28;20034;-64
2023/03/31 01:36:21;;;;;;;4.57;4.18;;;;;;;1.66;77.73;147739.38;5024015;28;20493;-65
2023/03/31 01:39:11;;;;;;;5.53;3.58;;;;;;;1.62;77.74;147729.19;5004325;28;20378;-65
2023/03/31 01:42:06;;;;;;;3.63;3.30;;;;;;;1.60;78.08;147722.84;5005699;28;20033;-64
2023/03/31 01:44:56;;;;;;;3.95;3.45;;;;;;;1.57;77.92;147716.47;5020833;28;20072;-64
2023/03/31 01:48:05;;;;;;;3.50;3.20;;;;;;;1.68;78.10;147743.19;5027111;28;20026;-64
2023/03/31 01:50:50;;;;;;;4.15;3.75;;;;;;;1.65;77.79;147736.81;4995246;28;20756;-63
2023/03/31 01:53:23;;;;;;;4.03;3.42;;;;;;;1.62;78.17;147727.91;5006219;28;20057;-64
2023/03/31 01:55:58;;;;;;;4.75;3.55;;;;;;;1.42;78.76;147678.28;5019336;28;20022;-64
2023/03/31 01:58:51;;;;;;;3.42;3.13;;;;;;;1.43;78.87;147682.09;5012856;28;20042;-65
2023/03/31 02:01:19;;;;;;;4.00;3.20;;;;;;;1.32;79.10;147654.09;5013421;28;20097;-65
2023/03/31 02:03:55;;;;;;;4.53;3.50;;;;;;;1.32;79.97;147654.09;5023094;28;20080;-64
2023/03/31 02:06:29;;;;;;;3.55;3.25;;;;;;;1.30;79.84;147649.03;5022973;28;20053;-62
2023/03/31 02:09:01;;;;;;;6.65;3.60;;;;;;;1.36;79.85;147664.28;5023700;28;20113;-64
2023/03/31 02:11:29;;;;;;;3.85;3.47;;;;;;;1.40;79.34;147673.16;5023276;28;20057;-64
2023/03/31 02:14:00;;;;;;;3.65;3.35;;;;;;;1.32;79.30;147655.34;5023748;28;20034;-63
2023/03/31 02:16:50;;;;;;;3.75;3.45;;;;;;;1.30;79.42;147649.03;5008675;28;20033;-64
2023/03/31 02:19:19;;;;;;;3.95;3.45;;;;;;;1.23;79.10;147631.16;5023435;28;20144;-62
2023/03/31 02:21:50;;;;;;;3.85;3.55;;;;;;;1.33;79.47;147656.66;5023387;28;20097;-63
2023/03/31 02:24:20;;;;;;;3.92;3.50;;;;;;;1.39;79.46;147671.91;5023116;28;20258;-68
2023/03/31 02:26:55;;;;;;;3.90;3.50;;;;;;;1.49;79.26;147697.34;5003853;28;20378;-64
2023/03/31 02:29:21;;;;;;;5.43;3.78;;;;;;;1.52;79.03;147704.97;5019786;28;20033;-63
2023/03/31 02:31:51;;;;;;;5.20;3.88;;;;;;;1.33;79.36;147657.91;5005384;28;20195;-64
2023/03/31 02:34:17;;;;;;;4.78;3.97;;;;;;;1.29;79.29;147647.72;5022720;28;20065;-64
2023/03/31 02:36:44;;;;;;;4.80;3.58;;;;;;;1.37;79.11;147666.84;5022914;28;20029;-65
2023/03/31 02:39:23;;;;;;;4.00;3.28;;;;;;;1.21;79.25;147627.34;5022922;28;20026;-63
2023/03/31 02:41:49;;;;;;;4.00;3.67;;;;;;;1.44;79.21;147684.66;5003222;28;20034;-63
2023/03/31 02:44:16;;;;;;;5.45;3.20;;;;;;;1.42;79.49;147679.53;5018116;28;20096;-64
2023/03/31 02:46:43;;;;;;;3.78;3.38;;;;;;;1.23;79.36;147631.16;5025892;28;20029;-64
2023/03/31 02:49:12;;;;;;;3.20;2.90;;;;;;;1.22;79.52;147628.66;5022845;28;20382;-64
2023/03/31 02:52:14;;;;;;;4.47;3.08;;;;;;;1.38;79.21;147669.34;5022218;28;20025;-65
2023/03/31 02:54:51;;;;;;;3.50;3.08;;;;;;;1.27;79.40;147642.66;5022637;28;20042;-64
2023/03/31 02:57:31;;;;;;;6.70;3.15;;;;;;;1.27;79.13;147641.34;5022420;28;20045;-63
2023/03/31 03:00:15;;;;;;;3.88;2.97;;;;;;;1.16;79.88;147614.66;5003034;28;20319;-63
2023/03/31 03:03:17;;;;;;;3.38;3.08;;;;;;;1.33;79.23;147656.66;5022232;28;20075;-64
2023/03/31 03:05:44;;;;;;;;;;;;;;;1.21;79.28;147627.34;5023205;28;20077;-63
2023/03/31 03:08:12;;;;;;;3.20;2.90;;;;;;;1.26;79.89;147640.09;5005608;28;19940;-65
2023/03/31 03:10:57;;;;;;;3.95;3.03;;;;;;;1.09;80.40;147596.84;5004682;28;20033;-64
2023/03/31 03:13:35;;;;;;;4.35;3.40;;;;;;;1.07;80.18;147591.72;5003087;28;20246;-63
2023/03/31 03:16:12;;;;;;;4.38;3.53;;;;;;;0.89;80.27;147547.22;5021901;28;20030;-63
2023/03/31 03:18:38;;;;;;;4.75;3.70;;;;;;;1.35;80.41;147661.72;5022662;28;20033;-66
2023/03/31 03:21:04;;;;;;;6.40;3.50;;;;;;;1.08;79.80;147594.28;5022737;28;20049;-63
2023/03/31 03:23:30;;;;;;;3.88;3.58;;;;;;;1.00;80.50;147575.22;5022501;28;20053;-64
2023/03/31 03:25:56;;;;;;;4.50;3.40;;;;;;;0.91;80.51;147553.53;5022492;28;20093;-63
2023/03/31 03:28:22;;;;;;;4.72;3.60;;;;;;;0.89;81.45;147547.22;5021640;28;20034;-62
2023/03/31 03:30:47;;;;;;;5.90;3.40;;;;;;;0.98;80.78;147570.09;5022227;28;20068;-62
2023/03/31 03:33:15;;;;;;;4.65;4.05;;;;;;;1.03;80.92;147584.09;5022015;28;20357;-64
2023/03/31 03:35:41;;;;;;;4.78;4.30;;;;;;;1.11;80.85;147601.91;5013965;28;20030;-66
2023/03/31 03:38:07;;;;;;;4.35;3.95;;;;;;;1.24;80.88;147635.03;5016598;28;20079;-64
2023/03/31 03:40:33;;;;;;;5.18;4.38;;;;;;;1.28;80.08;147643.91;5022086;28;20053;-64
2023/03/31 03:42:58;;;;;;;4.47;3.90;;;;;;;1.36;79.39;147664.28;5022235;28;20306;-63
2023/03/31 03:45:24;;;;;;;4.80;4.18;;;;;;;1.23;79.84;147632.47;5022057;28;20033;-64
2023/03/31 03:47:49;;;;;;;7.28;4.85;;;;;;;1.21;80.30;147627.34;5023860;28;20029;-63
2023/03/31 03:50:15;;;;;;;5.43;4.43;;;;;;;1.24;80.70;147635.03;5021741;28;20117;-64
2023/03/31 03:52:41;;;;;;;5.07;4.32;;;;;;;1.12;80.43;147605.72;5024272;28;20026;-64
2023/03/31 03:55:06;;;;;;;7.03;4.43;;;;;;;1.28;80.18;147645.16;5025469;28;20334;-64
2023/03/31 03:57:32;;;;;;;5.80;4.90;;;;;;;1.16;80.16;147615.91;5025556;28;20069;-65
2023/03/31 03:59:58;;;;;;;4.82;4.43;;;;;;;0.99;80.98;147573.91;5025491;28;20053;-63
2023/03/31 04:02:23;;;;;;;5.35;4.40;;;;;;;0.85;81.38;147539.53;5025622;28;20037;-64
2023/03/31 04:04:49;;;;;;;6.75;4.60;;;;;;;1.04;81.14;147585.34;5026052;28;20022;-64
2023/03/31 04:07:15;;;;;;;7.47;4.53;;;;;;;1.16;81.16;147614.66;5025455;28;20323;-62
2023/03/31 04:09:40;;;;;;;13.32;5.15;;;;;;;1.05;80.27;147587.91;5025735;28;20026;-64
2023/03/31 04:12:06;;;;;;;7.43;4.82;;;;;;;1.00;80.48;147576.47;5025905;28;20072;-62
2023/03/31 04:14:31;;;;;;;7.32;4.97;;;;;;;1.19;80.62;147623.53;5025359;28;20041;-62
2023/03/31 04:16:57;;;;;;;6.57;4.68;;;;;;;1.26;80.05;147640.09;5025501;28;20097;-64
2023/03/31 04:19:24;;;;;;;4.85;4.30;;;;;;;1.14;79.90;147609.53;5025510;28;20210;-63
2023/03/31 04:21:57;;;;;;;6.65;5.18;;;;;;;1.15;80.22;147612.09;5025614;28;20029;-62
2023/03/31 04:24:29;;;;;;;5.00;4.28;;;;;;;0.92;80.29;147554.84;5024129;28;20268;-62
2023/03/31 04:26:55;;;;;;;4.47;4.07;;;;;;;0.62;81.00;147481.06;5006001;28;20034;-63
2023/03/31 04:29:25;;;;;;;4.50;4.10;;;;;;;0.72;81.67;147505.22;5021303;28;20072;-65
2023/03/31 04:31:52;;;;;;;5.82;4.50;;;;;;;0.81;81.42;147528.09;5025133;28;20021;-63
2023/03/31 04:34:21;;;;;;;6.50;4.53;;;;;;;0.89;81.10;147548.47;5024800;28;20037;-62
2023/03/31 04:36:51;;;;;;;4.90;4.30;;;;;;;1.02;81.34;147581.53;5025093;28;20247;-63
2023/03/31 04:39:25;;;;;;;7.90;4.68;;;;;;;0.99;81.38;147573.91;5024805;28;20038;-63
2023/03/31 04:41:52;;;;;;;5.00;4.60;;;;;;;1.19;80.75;147623.53;5024757;28;20030;-64
2023/03/31 04:44:17;;;;;;;7.45;4.80;;;;;;;1.16;80.62;147614.66;5024526;28;20275;-64
2023/03/31 04:46:43;;;;;;;6.97;4.82;;;;;;;1.16;80.42;147615.91;5026968;28;20034;-64
2023/03/31 04:49:08;;;;;;;7.28;4.63;;;;;;;1.27;80.14;147641.34;5024666;28;20089;-64
2023/03/31 04:51:34;;;;;;;4.60;3.90;;;;;;;1.20;80.04;147626.09;5024605;28;20037;-62
2023/03/31 04:54:00;;;;;;;8.23;4.88;;;;;;;0.81;80.78;147528.09;5024684;28;20041;-62
2023/03/31 04:56:26;;;;;;;5.38;4.88;;;;;;;0.83;81.14;147533.22;5006758;28;20030;-62
2023/03/31 04:58:51;;;;;;;5.72;4.60;;;;;;;0.93;81.39;147558.66;5018242;28;20034;-63
2023/03/31 05:01:17;;;;;;;6.63;4.82;;;;;;;0.89;80.89;147548.47;5017372;28;20097;-63
2023/03/31 05:03:44;;;;;;;5.80;4.82;;;;;;;1.05;81.13;147587.91;5023717;28;20219;-63
2023/03/31 05:06:09;;;;;;;12.05;5.38;;;;;;;1.00;80.19;147576.47;5013940;28;20057;-64
2023/03/31 05:08:36;;;;;;;8.88;5.60;;;;;;;1.03;81.55;147582.84;5023688;28;20022;-64
2023/03/31 05:11:03;;;;;;;5.68;4.45;;;;;;;1.11;80.87;147603.19;5021652;28;20133;-64
2023/03/31 05:13:28;;;;;;;7.25;4.93;;;;;;;0.70;81.45;147501.41;5023492;28;20026;-62
2023/03/31 05:15:54;;;;;;;7.38;5.10;;;;;;;0.69;81.78;147498.84;5023508;28;20025;-63
2023/03/31 05:18:20;;;;;;;5.78;5.20;;;;;;;0.57;82.43;147469.63;5024405;28;20030;-62
2023/03/31 05:20:45;;;;;;;7.35;5.63;;;;;;;0.64;82.85;147486.13;5024052;28;20392;-63
2023/03/31 05:23:11;;;;;;;10.88;6.35;;;;;;;0.98;82.33;147570.09;5023494;28;20030;-63
2023/03/31 05:25:37;;;;;;;6.28;5.13;;;;;;;0.98;81.37;147570.09;5023898;28;20034;-62
2023/03/31 05:28:03;;;;;;;7.40;5.22;;;;;;;0.97;81.26;147567.53;5023884;28;20018;-62
2023/03/31 05:30:29;;;;;;;7.13;5.30;;;;;;;1.18;81.44;147621.03;5023813;28;20210;-64
2023/03/31 05:32:55;;;;;;;10.23;6.10;;;;;;;1.20;81.33;147626.09;5006444;28;20037;-63
2023/03/31 05:35:21;;;;;;;6.00;5.28;;;;;;;1.21;81.46;147627.34;5023578;28;20065;-63
2023/03/31 05:37:46;;;;;;;8.55;5.78;;;;;;;1.43;81.02;147680.84;5023841;28;20222;-63
2023/03/31 05:40:12;;;;;;;8.02;5.60;;;;;;;1.36;80.83;147664.28;5005998;28;20026;-63
2023/03/31 05:42:38;;;;;;;6.18;5.20;;;;;;;1.34;80.08;147659.16;5023702;28;20034;-63
2023/03/31 05:45:05;;;;;;;8.35;5.03;;;;;;;1.48;80.34;147693.53;5023652;28;20029;-63
2023/03/31 05:47:31;;;;;;;5.82;5.05;;;;;;;1.60;79.24;147724.09;5025066;28;20234;-62
2023/03/31 05:49:57;;;;;;;7.05;5.53;;;;;;;1.34;79.80;147659.16;5023810;28;20030;-63
2023/03/31 05:52:23;;;;;;;8.73;5.43;;;;;;;1.71;79.71;147752.13;5023482;28;20125;-64
2023/03/31 05:54:48;;;;;;;7.10;5.15;;;;;;;1.88;79.08;147792.84;5023541;28;20106;-63
2023/03/31 05:57:14;;;;;;;6.55;5.30;;;;;;;1.65;78.98;147735.56;5005630;28;20513;-62
2023/03/31 05:59:41;;;;;;;7.78;5.30;;;;;;;1.83;79.27;147780.13;5023040;28;20254;-63
2023/03/31 06:02:06;;;;;;;7.85;5.43;;;;;;;1.74;78.88;147758.50;5020267;28;20060;-65
2023/03/31 06:04:32;;;;;;;5.25;4.75;;;;;;;1.89;79.82;147795.41;5022712;28;20326;-62
2023/03/31 06:06:58;;;;;;;6.10;5.40;;;;;;;1.75;78.67;147759.75;5022700;28;20097;-65
2023/03/31 06:09:24;;;;;;;7.20;5.43;;;;;;;1.65;79.30;147736.81;5011992;28;20034;-63
2023/03/31 06:11:50;;;;;;;8.35;5.15;;;;;;;1.32;78.75;147655.34;5022868;28;20026;-61
2023/03/31 06:14:16;;;;;;;6.68;5.35;;;;;;;1.69;78.57;147747.00;5018933;28;20024;-64
2023/03/31 06:16:41;;;;;;;6.47;5.25;;;;;;;1.79;78.27;147769.94;5017396;28;20032;-64
2023/03/31 06:19:07;;;;;;;8.68;5.55;;;;;;;1.91;78.37;147800.53;5022795;28;20025;-63
2023/03/31 06:21:33;;;;;;;11.95;6.10;;;;;;;2.11;77.71;147850.19;5022601;28;20038;-63
2023/03/31 06:23:59;;;;;;;10.25;6.22;;;;;;;2.00;77.36;147823.41;5022280;28;20033;-62
2023/03/31 06:26:26;;;;;;;9.98;5.55;;;;;;;2.06;78.09;147837.44;5020129;28;20030;-63
2023/03/31 06:28:52;;;;;;;7.13;5.70;;;;;;;1.99;77.60;147819.59;5005144;28;20026;-62
2023/03/31 06:31:21;;;;;;;9.52;6.63;;;;;;;2.12;77.46;147851.44;5022157;28;20040;-65
2023/03/31 06:33:47;;;;;;;6.88;5.85;;;;;;;2.20;77.71;147871.84;5022466;28;20040;-63
2023/03/31 06:36:15;;;;;;;9.75;6.30;;;;;;;1.99;77.62;147819.59;5022367;28;20055;-63
2023/03/31 06:38:41;;;;;;;6.55;5.85;;;;;;;1.85;77.99;147786.50;5022706;28;20361;-64
2023/03/31 06:41:08;;;;;;;7.18;6.50;;;;;;;1.90;78.00;147799.22;5015842;28;20022;-63
2023/03/31 06:43:34;;;;;;;7.72;5.88;;;;;;;2.11;77.85;147850.19;5010458;28;20087;-62
2023/03/31 06:46:00;;;;;;;11.10;6.70;;;;;;;2.16;76.98;147862.91;5022122;28;20049;-63
2023/03/31 06:48:26;;;;;;;8.90;6.32;;;;;;;2.12;78.27;147852.69;5021969;28;20053;-63
2023/03/31 06:50:53;;;;;;;6.93;6.22;;;;;;;2.30;77.61;147896.03;5021468;28;20037;-65
2023/03/31 06:53:20;;;;;;;10.90;6.97;;;;;;;2.10;77.67;147846.38;5022255;28;20057;-64
2023/03/31 06:55:46;;;;;;;10.65;7.10;;;;;;;2.26;77.82;147885.84;5018973;28;20191;-64
2023/03/31 06:58:12;;;;;;;8.18;6.38;;;;;;;2.35;77.97;147908.75;5021831;28;20088;-64
2023/03/31 07:00:37;;;;;;;11.45;7.28;;;;;;;2.35;77.37;147910.06;5021743;28;20041;-62
2023/03/31 07:03:03;;;;;;;8.00;6.72;;;;;;;2.39;77.30;147920.25;5022264;28;20022;-64
2023/03/31 07:05:30;;;;;;;7.57;6.30;;;;;;;2.56;77.33;147961.00;5021920;28;20128;-63
2023/03/31 07:07:57;;;;;;;17.00;8.50;;;;;;;2.57;76.89;147963.56;5021390;28;20040;-64
2023/03/31 07:10:25;;;;;;;9.90;7.75;;;;;;;2.64;77.01;147981.41;5004262;28;20284;-63
2023/03/31 07:12:51;;;;;;;11.35;8.38;;;;;;;2.45;77.16;147932.97;5021874;28;20026;-62
2023/03/31 07:15:17;;;;;;;9.15;7.82;;;;;;;2.45;77.13;147932.97;5021341;28;20098;-62
2023/03/31 07:17:43;;;;;;;9.27;8.05;;;;;;;2.66;76.89;147985.22;5022009;28;20022;-63
2023/03/31 07:20:13;;;;;;;10.27;7.97;;;;;;;2.62;77.13;147976.28;5021914;28;20028;-62
2023/03/31 07:22:41;;;;;;;9.52;8.55;;;;;;;2.59;77.14;147968.63;5021821;28;20042;-64
2023/03/31 07:25:10;;;;;;;10.23;7.88;;;;;;;2.37;77.09;147915.13;5013474;28;20037;-63
2023/03/31 07:27:36;;;;;;;9.80;8.40;;;;;;;2.38;77.41;147916.38;5023920;28;20226;-65
2023/03/31 07:30:08;;;;;;;12.30;9.57;;;;;;;2.55;76.84;147958.44;5026167;28;20036;-63
2023/03/31 07:32:34;;;;;;;14.07;9.07;;;;;;;2.37;77.41;147915.13;5026038;28;20046;-63
2023/03/31 07:34:59;;;;;;;14.05;8.68;;;;;;;2.53;78.03;147954.63;5026213;28;20543;-63
2023/03/31 07:37:25;;;;;;;9.73;8.68;;;;;;;2.34;77.00;147906.25;5026018;28;20121;-63
2023/03/31 07:39:51;;;;;;;11.82;9.23;;;;;;;2.59;77.81;147969.94;5025718;28;20041;-63
2023/03/31 07:42:17;;;;;;;15.57;8.30;;;;;;;2.62;77.11;147976.28;5025807;28;20241;-63
2023/03/31 07:44:42;;;;;;;9.15;8.07;;;;;;;2.67;77.39;147989.03;5026003;28;20029;-63
2023/03/31 07:47:08;;;;;;;11.25;7.63;;;;;;;2.56;77.37;147962.25;5026167;28;20026;-63
2023/03/31 07:49:34;;;;;;;10.07;8.30;;;;;;;2.62;77.27;147975.00;5024547;28;20041;-63
2023/03/31 07:52:01;;;;;;;13.10;7.65;;;;;;;2.59;77.42;147969.94;5024750;28;20046;-63
2023/03/31 07:54:27;;;;;;;9.27;7.18;;;;;;;2.70;76.67;147996.66;5008172;28;20292;-63
2023/03/31 07:56:53;;;;;;;10.07;7.05;;;;;;;2.68;77.24;147991.59;5008616;28;20029;-64
2023/03/31 07:59:18;;;;;;;9.32;7.30;;;;;;;2.63;76.87;147977.56;5025594;28;20191;-65
2023/03/31 08:01:44;;;;;;;17.38;7.70;;;;;;;2.55;76.66;147958.44;5025399;28;20029;-67
2023/03/31 08:04:11;;;;;;;9.57;7.82;;;;;;;2.47;77.36;147939.34;5008047;28;20032;-64
2023/03/31 08:06:38;;;;;;;15.70;7.85;;;;;;;2.68;76.76;147990.28;5025077;28;20063;-66
2023/03/31 08:09:06;;;;;;;11.40;6.95;;;;;;;2.67;76.77;147989.03;5025087;28;20396;-67
2023/03/31 08:11:33;;;;;;;13.27;7.80;;;;;;;2.59;76.97;147968.63;5025508;28;20033;-65
2023/03/31 08:13:59;;;;;;;12.05;7.43;;;;;;;2.72;77.25;148000.50;5025549;28;20033;-64
2023/03/31 08:16:25;;;;;;;8.55;7.18;;;;;;;2.72;77.25;148000.50;5015475;28;20034;-64
2023/03/31 08:18:50;;;;;;;10.82;7.00;;;;;;;2.73;77.46;148003.06;5025018;28;20036;-64
2023/03/31 08:21:16;;;;;;;8.30;7.22;;;;;;;2.69;76.93;147992.84;5024892;28;20026;-65
2023/03/31 08:23:41;;;;;;;11.55;7.78;;;;;;;2.77;76.58;148013.25;5023073;28;20053;-66
2023/03/31 08:26:13;;;;;;;11.05;6.82;;;;;;;2.65;76.63;147982.66;5019780;28;20030;-64
2023/03/31 08:28:39;;;;;;;17.05;8.88;;;;;;;2.70;76.74;147996.66;5024845;28;20202;-63
2023/03/31 08:31:06;;;;;;;11.40;7.30;;;;;;;2.80;77.21;148020.88;5024156;28;20375;-63
2023/03/31 08:33:32;;;;;;;10.05;7.20;;;;;;;2.89;76.82;148043.84;5024484;28;20345;-65
2023/03/31 08:36:07;;;;;;;14.65;7.80;;;;;;;2.96;76.05;148059.13;5024603;28;20017;-65
2023/03/31 08:38:36;;;;;;;11.88;7.60;;;;;;;2.86;75.57;148034.91;5021679;28;20381;-65
2023/03/31 08:41:04;;;;;;;11.02;7.00;;;;;;;2.63;76.57;147977.56;5024911;28;20042;-63
2023/03/31 08:43:41;;;;;;;8.90;7.10;;;;;;;2.66;76.89;147985.22;5024344;28;20026;-63
2023/03/31 08:46:11;;;;;;;14.65;7.90;;;;;;;2.73;77.02;148003.06;5023176;28;20018;-65
2023/03/31 08:48:53;;;;;;;12.40;8.00;;;;;;;2.97;76.35;148061.69;5024546;28;20050;-64
2023/03/31 08:51:32;;;;;;;9.10;7.18;;;;;;;3.07;75.84;148088.44;5024097;28;20333;-63
2023/03/31 08:54:06;;;;;;;11.90;7.85;;;;;;;3.03;76.83;148076.97;5024625;28;20030;-63
2023/03/31 08:56:39;;;;;;;13.18;7.78;;;;;;;3.10;75.22;148096.06;5024183;28;20734;-65
2023/03/31 08:59:11;;;;;;;14.25;8.25;;;;;;;2.94;75.78;148056.56;5023567;28;20034;-64
2023/03/31 09:01:54;;;;;;;16.35;8.10;;;;;;;3.13;75.78;148101.19;5023902;28;20056;-63
2023/03/31 09:04:31;;;;;;;12.77;6.95;;;;;;;3.05;75.41;148082.03;5024456;28;20104;-62
2023/03/31 09:07:34;;;;;;;9.38;6.90;;;;;;;2.93;75.42;148054.00;5017933;28;20058;-64
2023/03/31 09:10:12;;;;;;;12.73;7.18;;;;;;;2.96;76.17;148059.13;5024252;28;20034;-63
2023/03/31 09:13:17;;;;;;;8.98;7.10;;;;;;;3.08;75.76;148089.75;5024593;28;20287;-64
2023/03/31 09:16:07;;;;;;;11.18;6.85;;;;;;;3.13;75.67;148102.47;5004661;28;20044;-65
2023/03/31 09:18:34;;;;;;;12.13;6.68;;;;;;;3.18;76.33;148115.22;5004089;28;20058;-64
2023/03/31 09:21:21;;;;;;;11.70;7.32;;;;;;;3.13;75.80;148102.47;5022904;28;20349;-64
2023/03/31 09:24:03;;;;;;;10.05;7.32;;;;;;;3.32;75.60;148148.34;5024268;28;20072;-63
2023/03/31 09:26:45;;;;;;;7.82;6.63;;;;;;;3.30;75.44;148144.53;5023417;28;20338;-65
2023/03/31 09:29:34;;;;;;;7.15;6.20;;;;;;;3.31;75.08;148147.09;5023051;28;20041;-65
2023/03/31 09:32:18;;;;;;;10.30;7.32;;;;;;;3.40;75.47;148168.75;4993768;28;20314;-65
2023/03/31 09:34:45;;;;;;;8.98;6.45;;;;;;;3.32;74.92;148148.34;5023541;28;20071;-66
2023/03/31 09:37:12;;;;;;;11.85;6.28;;;;;;;3.52;75.94;148199.38;5022411;28;20049;-65
2023/03/31 09:39:39;;;;;;;11.35;5.53;;;;;;;3.11;75.79;148097.38;5023597;28;20057;-64
2023/03/31 09:42:05;;;;;;;9.57;6.07;;;;;;;3.35;75.50;148156.00;5022948;28;20227;-64
2023/03/31 09:44:40;;;;;;;9.52;5.95;;;;;;;3.32;75.15;148148.34;5023004;28;20041;-63
2023/03/31 09:47:11;;;;;;;10.98;5.50;;;;;;;3.27;74.79;148136.88;5021373;28;20079;-64
2023/03/31 09:49:37;;;;;;;8.10;5.57;;;;;;;3.27;75.01;148138.16;5021882;28;20348;-63
2023/03/31 09:52:25;;;;;;;11.48;6.03;;;;;;;3.08;76.03;148089.75;5022542;28;20085;-63
2023/03/31 09:54:54;;;;;;;8.73;5.03;;;;;;;3.04;75.61;148080.78;5021931;28;20041;-63
2023/03/31 09:57:26;;;;;;;7.25;5.75;;;;;;;2.94;76.43;148056.56;5022148;28;20105;-64
2023/03/31 10:00:00;;;;;;;7.00;5.28;;;;;;;3.10;75.79;148094.81;5023459;28;20025;-63
2023/03/31 10:02:39;;;;;;;5.70;5.07;;;;;;;3.18;76.26;148115.22;5022312;28;20034;-63
2023/03/31 10:05:07;;;;;;;12.07;5.60;;;;;;;3.34;75.48;148154.72;5022591;28;20048;-64
2023/03/31 10:07:33;;;;;;;6.70;6.00;;;;;;;3.13;76.24;148102.47;5022546;28;20046;-62
2023/03/31 10:09:59;;;;;;;8.38;5.38;;;;;;;3.26;75.08;148135.63;5022940;28;20056;-63
2023/03/31 10:12:28;;;;;;;9.02;5.03;;;;;;;3.08;75.71;148089.75;5022424;28;20342;-64
2023/03/31 10:15:32;;;;;;;6.88;5.00;;;;;;;3.02;75.84;148074.41;5023444;28;20076;-63
2023/03/31 10:17:58;;;;;;;8.50;5.22;;;;;;;2.93;76.60;148052.75;4996833;28;20072;-64
2023/03/31 10:20:36;;;;;;;7.05;5.50;;;;;;;3.06;76.23;148085.88;5015090;28;20079;-63
2023/03/31 10:23:21;;;;;;;10.63;5.43;;;;;;;3.19;76.91;148116.47;5022879;28;20105;-64
2023/03/31 10:25:47;;;;;;;11.43;5.28;;;;;;;3.30;76.53;148143.28;5018546;28;20030;-62
2023/03/31 10:28:19;;;;;;;6.85;5.65;;;;;;;3.08;76.44;148091.00;5005825;28;20033;-62
2023/03/31 10:30:54;;;;;;;6.90;5.82;;;;;;;3.15;76.25;148106.28;5022795;28;20097;-63
2023/03/31 10:33:26;;;;;;;7.18;5.53;;;;;;;3.09;76.70;148092.25;5003044;28;20030;-64
2023/03/31 10:35:57;;;;;;;8.40;6.20;;;;;;;3.16;76.89;148110.09;5019523;28;20041;-64
2023/03/31 10:38:41;;;;;;;12.15;6.22;;;;;;;3.05;77.00;148082.03;5021950;28;20342;-64
2023/03/31 10:41:07;;;;;;;8.57;6.00;;;;;;;3.03;77.01;148076.97;5019655;28;20045;-63
2023/03/31 10:43:46;;;;;;;9.85;5.70;;;;;;;2.94;77.49;148055.31;5021837;28;20277;-64
2023/03/31 10:46:12;;;;;;;7.60;5.47;;;;;;;3.10;76.70;148094.81;5006895;28;20029;-62
2023/03/31 10:48:40;;;;;;;7.32;5.18;;;;;;;3.15;77.41;148107.59;5022446;28;20030;-63
2023/03/31 10:51:25;;;;;;;6.93;5.57;;;;;;;3.32;76.36;148149.66;5004789;28;20360;-63
2023/03/31 10:53:53;;;;;;;7.40;6.20;;;;;;;3.27;76.92;148138.16;5017206;28;20037;-64
2023/03/31 10:56:22;;;;;;;8.90;6.30;;;;;;;3.45;75.90;148181.53;5021339;28;20034;-62
2023/03/31 10:58:58;;;;;;;11.02;5.63;;;;;;;3.46;76.25;148184.03;5025773;28;20109;-62
2023/03/31 11:01:31;;;;;;;9.00;5.50;;;;;;;3.30;77.15;148144.53;5034329;28;20036;-62
2023/03/31 11:04:36;;;;;;;9.90;5.70;;;;;;;3.27;76.74;148136.88;5022100;28;20310;-62
2023/03/31 11:07:39;;;;;;;7.93;6.30;;;;;;;2.96;78.72;148059.13;5018534;28;20087;-63
2023/03/31 11:10:22;;;;;;;;;;;;;;;3.03;78.95;148076.97;5030855;28;20116;-62
2023/03/31 11:13:10;;;;;;;8.15;6.40;;;;;;;3.12;79.35;148099.91;5021930;28;19951;-63
2023/03/31 11:15:50;;;;;;;10.20;6.63;;;;;;;3.07;80.45;148087.19;5001898;28;20022;-60
2023/03/31 11:18:40;;;;;;;10.68;7.22;;;;;;;3.25;79.98;148133.06;5021407;28;20041;-62
2023/03/31 11:21:21;;;;;;;8.52;7.00;;;;;;;3.41;80.34;148171.31;5004217;28;20391;-63
2023/03/31 11:23:49;;;;;;;9.55;6.90;;;;;;;3.27;80.01;148138.16;5022153;28;20030;-64
2023/03/31 11:26:20;;;;;;;9.68;6.35;;;;;;;3.23;80.17;148127.94;5021899;28;20093;-64
2023/03/31 11:29:03;;;;;;;8.32;7.05;;;;;;;3.29;80.75;148141.97;5021887;28;20032;-64
2023/03/31 11:31:36;;;;;;;8.35;7.45;;;;;;;3.33;80.66;148152.16;5019025;28;20029;-62
2023/03/31 11:34:25;;;;;;;7.80;6.50;;;;;;;3.23;81.60;148126.69;5022184;28;20206;-62
2023/03/31 11:37:10;;;;;;;9.60;7.22;;;;;;;3.23;81.89;148126.69;5022131;28;20307;-62
2023/03/31 11:39:57;;;;;;;9.98;7.30;;;;;;;3.42;81.60;148173.84;4984749;28;20034;-65
2023/03/31 11:42:33;;;;;;;9.60;6.85;;;;;;;3.47;80.89;148185.34;5002017;28;20228;-63
2023/03/31 11:45:12;;;;;;;8.07;6.57;;;;;;;3.52;80.94;148198.06;5018181;28;20030;-64
2023/03/31 11:47:43;;;;;;;9.50;7.15;;;;;;;3.48;80.94;148187.88;5021343;28;20059;-62
2023/03/31 11:50:17;;;;;;;8.45;7.10;;;;;;;3.28;80.96;148140.72;5021105;28;20033;-64